Time;durP1;ratioP1;P1;durP2;ratioP2;P2;SDS_P1;SDS_P2;PMS_P1;PMS_P2;Temp;Humidity;BMP_temperature;BMP_pressure;BME280_temperature;BME280_humidity;BME280_pressure;Samples;Min_cycle;Max_cycle;Signal;HPM_P1;HPM_P2
2023/07/25 00:01:58;;;;;;;55.60;51.72;;;;;;;20.66;100.00;100497.72;5062443;28;20053;-78
2023/07/25 00:04:25;;;;;;;54.05;49.97;;;;;;;20.70;100.00;100495.28;5058778;28;20044;-79
2023/07/25 00:06:52;;;;;;;62.25;57.58;;;;;;;20.22;100.00;100497.63;5053992;28;20057;-78
2023/07/25 00:09:18;;;;;;;39.80;36.50;;;;;;;20.37;100.00;100500.25;5062712;28;20045;-78
2023/07/25 00:11:46;;;;;;;35.53;32.45;;;;;;;20.55;100.00;100509.66;5062330;28;20139;-78
2023/07/25 00:14:14;;;;;;;35.95;32.58;;;;;;;20.73;100.00;100500.13;5056878;28;20052;-78
2023/07/25 00:16:41;;;;;;;35.75;32.58;;;;;;;20.71;100.00;100505.78;5058276;28;20067;-78
2023/07/25 00:19:16;;;;;;;33.53;30.75;;;;;;;19.83;100.00;100509.06;5062189;28;20183;-78
2023/07/25 00:21:43;;;;;;;63.72;59.13;;;;;;;20.00;100.00;100516.81;5061126;28;20127;-78
2023/07/25 00:24:10;;;;;;;62.90;58.65;;;;;;;20.32;100.00;100521.84;5059629;28;20842;-78
2023/07/25 00:26:36;;;;;;;62.80;58.17;;;;;;;20.25;100.00;100507.88;5060686;28;20049;-78
2023/07/25 00:29:04;;;;;;;60.78;56.67;;;;;;;19.85;100.00;100514.97;5060283;28;20523;-78
2023/07/25 00:31:32;;;;;;;54.72;50.88;;;;;;;20.22;100.00;100505.72;5064788;28;20094;-78
2023/07/25 00:34:06;;;;;;;66.07;61.60;;;;;;;20.19;100.00;100496.28;5062329;28;20534;-78
2023/07/25 00:36:33;;;;;;;56.72;52.45;;;;;;;20.27;100.00;100501.13;5057699;28;20048;-81
2023/07/25 00:39:00;;;;;;;65.57;61.25;;;;;;;19.90;100.00;100498.78;5064201;28;20048;-81
2023/07/25 00:41:27;;;;;;;64.35;59.15;;;;;;;19.87;100.00;100496.63;5063177;28;20056;-81
2023/07/25 00:43:54;;;;;;;59.70;55.55;;;;;;;20.25;100.00;100489.78;5057492;28;20051;-80
2023/07/25 00:46:21;;;;;;;61.92;57.90;;;;;;;19.84;100.00;100494.50;5061416;28;20044;-81
2023/07/25 00:48:52;;;;;;;64.55;60.45;;;;;;;19.78;100.00;100493.69;5055822;28;20406;-81
2023/07/25 00:51:20;;;;;;;58.45;54.30;;;;;;;19.97;100.00;100490.41;5060902;28;20066;-78
2023/07/25 00:53:47;;;;;;;57.45;53.53;;;;;;;19.66;100.00;100485.09;5066567;28;20059;-78
2023/07/25 00:56:14;;;;;;;54.35;50.70;;;;;;;20.13;100.00;100492.00;5059332;28;20542;-78
2023/07/25 00:58:41;;;;;;;53.35;49.60;;;;;;;20.12;100.00;100490.34;5060501;28;20414;-81
2023/07/25 01:01:08;;;;;;;51.40;47.80;;;;;;;19.77;100.00;100494.78;5060314;28;20053;-81
2023/07/25 01:03:37;;;;;;;55.17;50.95;;;;;;;19.75;100.00;100499.63;5067970;28;20123;-81
2023/07/25 01:06:06;;;;;;;52.60;48.80;;;;;;;20.14;100.00;100497.09;5064618;28;20045;-81
2023/07/25 01:08:33;;;;;;;61.47;57.40;;;;;;;20.01;100.00;100483.41;5062528;28;20045;-80
2023/07/25 01:11:00;;;;;;;50.35;46.60;;;;;;;19.85;100.00;100479.94;5065707;28;20036;-81
2023/07/25 01:13:27;;;;;;;41.80;38.33;;;;;;;19.69;100.00;100481.84;5054259;28;20120;-81
2023/07/25 01:15:55;;;;;;;41.92;38.58;;;;;;;19.77;100.00;100489.38;5058976;28;20041;-81
2023/07/25 01:18:22;;;;;;;43.03;39.53;;;;;;;20.04;100.00;100482.84;5060479;28;20079;-81
2023/07/25 01:20:49;;;;;;;52.47;48.70;;;;;;;19.92;100.00;100475.06;5062582;28;20059;-79
2023/07/25 01:23:19;;;;;;;43.67;39.97;;;;;;;19.60;100.00;100478.88;5059473;28;20131;-78
2023/07/25 01:25:48;;;;;;;51.35;47.55;;;;;;;19.39;100.00;100475.38;5063822;28;20053;-78
2023/07/25 01:28:15;;;;;;;52.10;48.25;;;;;;;19.52;100.00;100475.94;5057010;28;20049;-79
2023/07/25 01:30:42;;;;;;;48.13;44.47;;;;;;;19.61;100.00;100482.38;5061031;28;20052;-79
2023/07/25 01:33:09;;;;;;;47.00;43.13;;;;;;;19.78;100.00;100472.13;5062791;28;20055;-78
2023/07/25 01:35:35;;;;;;;48.28;44.97;;;;;;;19.20;100.00;100474.31;5062339;28;20440;-78
2023/07/25 01:38:03;;;;;;;60.00;55.95;;;;;;;19.74;100.00;100472.97;5061108;28;20052;-81
2023/07/25 01:40:29;;;;;;;49.05;45.60;;;;;;;19.57;100.00;100468.63;5060988;28;20135;-78
2023/07/25 01:42:58;;;;;;;50.85;46.95;;;;;;;19.57;100.00;100476.72;5061840;28;20535;-78
2023/07/25 01:45:24;;;;;;;50.40;46.80;;;;;;;19.65;100.00;100468.13;5063181;28;20052;-79
2023/07/25 01:47:56;;;;;;;52.10;48.25;;;;;;;20.03;100.00;100479.38;5061169;28;20496;-78
2023/07/25 01:50:24;;;;;;;44.47;41.08;;;;;;;20.02;100.00;100475.03;5061064;28;20048;-78
2023/07/25 01:52:50;;;;;;;44.47;41.05;;;;;;;19.35;100.00;100485.09;5059630;28;20417;-78
2023/07/25 01:55:18;;;;;;;41.45;38.35;;;;;;;19.27;100.00;100476.75;5060807;28;20041;-78
2023/07/25 01:57:44;;;;;;;45.30;41.92;;;;;;;19.57;100.00;100484.00;5060051;28;20056;-78
2023/07/25 02:00:16;;;;;;;46.90;43.15;;;;;;;19.14;100.00;100489.66;5065414;28;20114;-78
2023/07/25 02:02:42;;;;;;;43.42;40.03;;;;;;;19.42;100.00;100477.53;5067505;28;20078;-81
2023/07/25 02:05:09;;;;;;;50.72;46.92;;;;;;;19.55;100.00;100468.13;5064045;28;20040;-81
2023/07/25 02:07:38;;;;;;;52.30;48.80;;;;;;;19.63;100.00;100472.13;5064234;28;20093;-81
2023/07/25 02:10:05;;;;;;;53.47;49.85;;;;;;;19.47;100.00;100475.94;5065062;28;20056;-82
2023/07/25 02:12:32;;;;;;;50.75;47.20;;;;;;;19.72;100.00;100489.38;5056156;28;20049;-82
2023/07/25 02:14:59;;;;;;;49.17;45.88;;;;;;;19.82;100.00;100485.88;5058176;28;20413;-82
2023/07/25 02:17:27;;;;;;;52.28;48.85;;;;;;;20.07;100.00;100479.63;5054631;28;20489;-82
2023/07/25 02:19:54;;;;;;;46.00;42.80;;;;;;;19.99;100.00;100489.06;5064307;28;20218;-82
2023/07/25 02:22:21;;;;;;;54.08;50.38;;;;;;;19.98;100.00;100475.88;5062571;28;20040;-82
2023/07/25 02:24:48;;;;;;;51.47;47.55;;;;;;;19.67;100.00;100494.81;5064282;28;20355;-81
2023/07/25 02:27:15;;;;;;;45.72;42.00;;;;;;;19.57;100.00;100492.88;5058709;28;20132;-82
2023/07/25 02:29:42;;;;;;;55.30;51.53;;;;;;;19.80;100.00;100496.13;5056849;28;20052;-81
2023/07/25 02:32:09;;;;;;;59.88;55.67;;;;;;;19.94;100.00;100496.34;5061627;28;20055;-81
2023/07/25 02:34:37;;;;;;;45.50;41.95;;;;;;;20.12;100.00;100496.59;5059808;28;20518;-82
2023/07/25 02:37:04;;;;;;;50.60;46.50;;;;;;;19.82;100.00;100499.38;5054724;28;20581;-82
2023/07/25 02:39:31;;;;;;;48.08;44.15;;;;;;;19.62;100.00;100505.53;5058961;28;20062;-82
2023/07/25 02:41:58;;;;;;;44.63;41.20;;;;;;;19.54;100.00;100500.69;5055914;28;20045;-78
2023/07/25 02:44:25;;;;;;;47.67;44.25;;;;;;;19.73;100.00;100495.56;5057836;28;20444;-82
2023/07/25 02:46:53;;;;;;;39.92;36.50;;;;;;;19.76;100.00;100492.34;5061175;28;20044;-81
2023/07/25 02:49:20;;;;;;;37.75;34.85;;;;;;;19.91;100.00;100500.41;5056457;28;20055;-81
2023/07/25 02:51:48;;;;;;;33.42;30.63;;;;;;;19.46;100.00;100499.38;5061262;28;20041;-81
2023/07/25 02:54:15;;;;;;;43.40;39.33;;;;;;;18.65;100.00;100506.22;5057622;28;20048;-81
2023/07/25 02:56:42;;;;;;;36.85;33.30;;;;;;;18.84;100.00;100513.84;5058910;28;20508;-78
2023/07/25 02:59:09;;;;;;;32.22;29.13;;;;;;;19.33;100.00;100510.66;5062404;28;20060;-79
2023/07/25 03:01:36;;;;;;;36.63;33.42;;;;;;;19.72;100.00;100497.47;5064165;28;20053;-78
2023/07/25 03:04:03;;;;;;;32.85;29.75;;;;;;;19.42;100.00;100504.47;5062662;28;20056;-78
2023/07/25 03:06:30;;;;;;;32.67;29.63;;;;;;;19.06;100.00;100505.53;5062967;28;20053;-78
2023/07/25 03:08:58;;;;;;;33.00;29.85;;;;;;;19.29;100.00;100506.91;5058203;28;20055;-81
2023/07/25 03:11:25;;;;;;;30.02;27.33;;;;;;;19.48;100.00;100502.56;5063246;28;20045;-78
2023/07/25 03:13:51;;;;;;;30.80;27.55;;;;;;;19.26;100.00;100496.66;5065011;28;20531;-81
2023/07/25 03:16:18;;;;;;;31.40;28.38;;;;;;;19.33;100.00;100489.13;5059417;28;20048;-81
2023/07/25 03:18:45;;;;;;;31.50;28.50;;;;;;;19.22;100.00;100483.75;5054465;28;20059;-81
2023/07/25 03:21:12;;;;;;;30.20;27.23;;;;;;;19.36;100.00;100496.66;5061241;28;20053;-81
2023/07/25 03:23:39;;;;;;;31.23;28.13;;;;;;;19.47;100.00;100490.19;5058255;28;20061;-81
2023/07/25 03:26:07;;;;;;;30.60;27.67;;;;;;;19.55;100.00;100478.88;5056594;28;20045;-81
2023/07/25 03:28:34;;;;;;;29.40;26.33;;;;;;;19.47;100.00;100482.13;5055483;28;20044;-81
2023/07/25 03:31:02;;;;;;;30.23;27.42;;;;;;;19.53;100.00;100481.03;5061925;28;20047;-81
2023/07/25 03:33:29;;;;;;;30.60;27.63;;;;;;;19.62;100.00;100484.78;5060509;28;20044;-81
2023/07/25 03:35:55;;;;;;;28.77;26.23;;;;;;;19.53;100.00;100474.84;5059206;28;20052;-80
2023/07/25 03:38:22;;;;;;;28.13;25.33;;;;;;;19.79;100.00;100465.69;5060554;28;20045;-81
2023/07/25 03:40:49;;;;;;;29.83;26.70;;;;;;;19.94;100.00;100474.78;5057471;28;20037;-81
2023/07/25 03:43:18;;;;;;;30.77;27.20;;;;;;;20.02;100.00;100460.75;5059884;28;20056;-78
2023/07/25 03:45:45;;;;;;;29.23;26.45;;;;;;;20.19;100.00;100453.16;5061583;28;20059;-80
2023/07/25 03:48:12;;;;;;;29.30;26.55;;;;;;;20.31;100.00;100461.72;5055108;28;20059;-78
2023/07/25 03:50:39;;;;;;;29.38;26.45;;;;;;;20.23;100.00;100458.78;5061182;28;20060;-78
2023/07/25 03:53:06;;;;;;;29.10;26.20;;;;;;;20.51;100.00;100452.69;5058082;28;20493;-78
2023/07/25 03:55:33;;;;;;;30.00;27.25;;;;;;;20.58;100.00;100445.16;5057535;28;20051;-78
2023/07/25 03:58:00;;;;;;;30.55;27.75;;;;;;;20.49;100.00;100446.78;5057825;28;20037;-78
2023/07/25 04:00:28;;;;;;;29.38;26.10;;;;;;;20.43;100.00;100439.03;5053604;28;20425;-78
2023/07/25 04:02:55;;;;;;;29.05;26.23;;;;;;;20.50;100.00;100437.59;5061053;28;20079;-78
2023/07/25 04:05:22;;;;;;;28.83;26.00;;;;;;;20.66;100.00;100443.75;5060586;28;20051;-81
2023/07/25 04:07:49;;;;;;;28.38;25.48;;;;;;;20.58;100.00;100450.56;5057727;28;20041;-81
2023/07/25 04:10:16;;;;;;;29.45;26.67;;;;;;;20.72;100.00;100447.22;5057741;28;20052;-81
2023/07/25 04:12:43;;;;;;;28.70;25.70;;;;;;;20.72;100.00;100444.53;5059772;28;20148;-78
2023/07/25 04:15:11;;;;;;;29.23;26.45;;;;;;;20.88;100.00;100456.84;5058172;28;20122;-78
2023/07/25 04:17:39;;;;;;;30.63;27.90;;;;;;;21.00;100.00;100446.50;5056872;28;20504;-78
2023/07/25 04:20:07;;;;;;;31.27;28.30;;;;;;;20.92;100.00;100447.09;5059710;28;20416;-78
2023/07/25 04:22:34;;;;;;;31.65;28.85;;;;;;;21.02;100.00;100441.59;5059136;28;20048;-78
2023/07/25 04:25:01;;;;;;;30.65;27.63;;;;;;;21.14;100.00;100441.22;5063192;28;20412;-78
2023/07/25 04:27:30;;;;;;;31.08;28.08;;;;;;;21.09;100.00;100440.47;5057998;28;20072;-81
2023/07/25 04:29:57;;;;;;;30.55;27.25;;;;;;;21.08;100.00;100445.06;5058905;28;20045;-81
2023/07/25 04:32:26;;;;;;;29.08;26.30;;;;;;;21.34;100.00;100434.88;5059282;28;20052;-81
2023/07/25 04:34:54;;;;;;;29.40;26.30;;;;;;;21.52;100.00;100427.97;5057639;28;20044;-80
2023/07/25 04:37:21;;;;;;;30.45;27.50;;;;;;;21.74;100.00;100432.88;5055779;28;20149;-81
2023/07/25 04:39:47;;;;;;;31.02;27.92;;;;;;;21.86;100.00;100437.88;5057209;28;20416;-80
2023/07/25 04:42:14;;;;;;;30.73;27.52;;;;;;;21.83;100.00;100433.03;5055672;28;20052;-81
2023/07/25 04:44:41;;;;;;;32.63;29.20;;;;;;;22.04;100.00;100428.19;5053824;28;20054;-81
2023/07/25 04:47:08;;;;;;;33.42;30.13;;;;;;;21.96;100.00;100432.34;5059885;28;20055;-81
2023/07/25 04:49:35;;;;;;;30.65;27.35;;;;;;;22.31;100.00;100433.81;5055535;28;20049;-81
2023/07/25 04:52:04;;;;;;;32.38;27.30;;;;;;;22.29;100.00;100433.31;5058793;28;20052;-81
2023/07/25 04:54:30;;;;;;;30.05;26.90;;;;;;;22.54;100.00;100424.06;5058012;28;20051;-81
2023/07/25 04:56:57;;;;;;;28.73;25.77;;;;;;;22.71;100.00;100428.94;5061097;28;20041;-81
2023/07/25 04:59:26;;;;;;;31.10;27.80;;;;;;;22.77;100.00;100422.34;5058421;28;20044;-80
2023/07/25 05:01:55;;;;;;;34.50;27.45;;;;;;;23.02;100.00;100426.56;5063220;28;20051;-81
2023/07/25 05:04:22;;;;;;;41.20;26.88;;;;;;;22.93;100.00;100422.09;5065726;28;20866;-81
2023/07/25 05:06:49;;;;;;;43.95;28.38;;;;;;;23.14;100.00;100419.88;5060548;28;20056;-80
2023/07/25 05:09:19;;;;;;;43.45;27.35;;;;;;;23.36;100.00;100408.38;5061123;28;20037;-81
2023/07/25 05:11:47;;;;;;;39.17;29.58;;;;;;;23.45;100.00;100401.16;5065227;28;20052;-81
2023/07/25 05:14:14;;;;;;;31.85;28.23;;;;;;;23.65;100.00;100397.28;5069018;28;20063;-80
2023/07/25 05:16:40;;;;;;;36.03;26.80;;;;;;;23.75;100.00;100397.94;5060915;28;20049;-80
2023/07/25 05:19:07;;;;;;;37.03;27.48;;;;;;;23.76;100.00;100394.09;5059608;28;20551;-81
2023/07/25 05:21:34;;;;;;;33.60;29.95;;;;;;;23.88;100.00;100398.22;5063168;28;20056;-80
2023/07/25 05:24:01;;;;;;;36.17;28.35;;;;;;;24.17;100.00;100393.22;5058001;28;20044;-81
2023/07/25 05:26:29;;;;;;;31.15;28.10;;;;;;;24.45;100.00;100393.22;5064313;28;20061;-81
2023/07/25 05:28:56;;;;;;;29.45;26.48;;;;;;;24.30;100.00;100398.94;5060539;28;20446;-81
2023/07/25 05:31:23;;;;;;;29.10;26.58;;;;;;;24.61;100.00;100380.09;5062458;28;20055;-80
2023/07/25 05:33:50;;;;;;;29.95;27.30;;;;;;;24.64;100.00;100393.03;5059607;28;20048;-80
2023/07/25 05:36:17;;;;;;;30.58;27.73;;;;;;;24.89;100.00;100388.91;5059476;28;20445;-81
2023/07/25 05:38:44;;;;;;;31.02;28.17;;;;;;;24.91;100.00;100392.91;5057750;28;20057;-81
2023/07/25 05:41:17;;;;;;;29.88;27.17;;;;;;;24.88;100.00;100387.31;5062025;28;20057;-80
2023/07/25 05:43:45;;;;;;;30.75;27.85;;;;;;;24.90;100.00;100388.59;5061919;28;20443;-80
2023/07/25 05:46:12;;;;;;;31.23;28.23;;;;;;;24.86;100.00;100397.66;5061014;28;20376;-80
2023/07/25 05:48:39;;;;;;;31.77;28.67;;;;;;;25.30;100.00;100383.25;5062455;28;20420;-80
2023/07/25 05:51:06;;;;;;;30.42;27.48;;;;;;;25.52;100.00;100385.09;5061399;28;20056;-80
2023/07/25 05:53:33;;;;;;;32.97;30.08;;;;;;;25.76;100.00;100373.03;5066066;28;20041;-80
2023/07/25 05:56:00;;;;;;;31.48;28.67;;;;;;;25.97;100.00;100384.16;5064013;28;20052;-81
2023/07/25 05:58:27;;;;;;;30.00;27.20;;;;;;;26.12;100.00;100382.91;5070401;28;20131;-81
2023/07/25 06:00:55;;;;;;;30.95;27.67;;;;;;;26.39;100.00;100388.03;5069056;28;20043;-80
2023/07/25 06:03:24;;;;;;;31.08;28.05;;;;;;;26.60;100.00;100390.16;5070644;28;20048;-81
2023/07/25 06:05:51;;;;;;;30.60;27.63;;;;;;;26.84;100.00;100384.16;5071005;28;20523;-81
2023/07/25 06:08:18;;;;;;;32.33;29.40;;;;;;;27.12;100.00;100376.44;5070534;28;20053;-78
2023/07/25 06:10:45;;;;;;;30.80;27.83;;;;;;;27.13;100.00;100376.09;5070733;28;20060;-78
2023/07/25 06:13:12;;;;;;;33.95;28.17;;;;;;;27.36;100.00;100373.97;5061518;28;20051;-79
2023/07/25 06:15:39;;;;;;;30.73;27.55;;;;;;;27.24;100.00;100368.41;5062358;28;20052;-80
2023/07/25 06:18:07;;;;;;;36.53;28.85;;;;;;;27.39;100.00;100359.69;5063067;28;20514;-79
2023/07/25 06:20:34;;;;;;;33.65;29.35;;;;;;;27.35;100.00;100350.56;5066154;28;20414;-78
2023/07/25 06:23:02;;;;;;;38.70;29.98;;;;;;;27.77;100.00;100367.00;5064283;28;20542;-81
2023/07/25 06:25:29;;;;;;;38.75;29.73;;;;;;;27.93;100.00;100364.56;5067201;28;20127;-80
2023/07/25 06:27:56;;;;;;;48.83;31.45;;;;;;;28.20;100.00;100362.41;5065122;28;20041;-81
2023/07/25 06:30:22;;;;;;;32.80;29.45;;;;;;;28.49;100.00;100369.78;5067465;28;20053;-78
2023/07/25 06:32:49;;;;;;;30.65;27.85;;;;;;;28.35;100.00;100361.81;5067721;28;20048;-80
2023/07/25 06:35:18;;;;;;;30.13;27.10;;;;;;;28.42;100.00;100355.88;5066886;28;20442;-81
2023/07/25 06:37:45;;;;;;;32.05;28.77;;;;;;;28.70;100.00;100348.69;5065100;28;20548;-81
2023/07/25 06:40:12;;;;;;;31.95;28.95;;;;;;;28.87;100.00;100341.44;5065704;28;20044;-78
2023/07/25 06:42:42;;;;;;;32.17;29.30;;;;;;;29.02;100.00;100334.53;5069160;28;20056;-78
2023/07/25 06:45:10;;;;;;;31.85;28.48;;;;;;;29.14;100.00;100326.34;5065521;28;20432;-78
2023/07/25 06:47:37;;;;;;;31.80;27.70;;;;;;;29.30;100.00;100326.50;5069486;28;20052;-78
2023/07/25 06:50:04;;;;;;;57.80;29.98;;;;;;;29.34;100.00;100321.94;5068584;28;20507;-81
2023/07/25 06:52:33;;;;;;;43.63;29.05;;;;;;;29.35;100.00;100307.09;5068846;28;20071;-81
2023/07/25 06:55:03;;;;;;;46.75;29.35;;;;;;;29.61;100.00;100301.28;5061961;28;20045;-79
2023/07/25 06:57:30;;;;;;;37.03;29.70;;;;;;;29.77;100.00;100298.66;5065209;28;20083;-80
2023/07/25 06:59:57;;;;;;;31.90;28.70;;;;;;;29.73;100.00;100289.56;5062020;28;20055;-81
2023/07/25 07:02:25;;;;;;;33.50;27.60;;;;;;;30.06;100.00;100300.28;5063270;28;20052;-81
2023/07/25 07:04:52;;;;;;;34.80;26.92;;;;;;;30.02;100.00;100288.47;5062559;28;20409;-81
2023/07/25 07:07:19;;;;;;;31.75;28.75;;;;;;;30.24;100.00;100298.88;5058506;28;20045;-81
2023/07/25 07:09:47;;;;;;;32.35;28.70;;;;;;;30.72;100.00;100302.53;5056128;28;20052;-78
2023/07/25 07:12:16;;;;;;;32.35;29.48;;;;;;;30.68;100.00;100309.88;5058361;28;20135;-79
2023/07/25 07:14:42;;;;;;;33.28;30.67;;;;;;;30.73;100.00;100303.31;5059562;28;20058;-79
2023/07/25 07:17:09;;;;;;;31.83;29.20;;;;;;;30.88;100.00;100308.03;5064202;28;20075;-81
2023/07/25 07:19:36;;;;;;;34.03;30.45;;;;;;;31.02;100.00;100308.41;5065407;28;20059;-79
2023/07/25 07:22:04;;;;;;;31.10;27.98;;;;;;;31.08;100.00;100303.47;5068832;28;20048;-81
2023/07/25 07:24:30;;;;;;;32.88;29.55;;;;;;;31.34;100.00;100310.31;5060529;28;20048;-81
2023/07/25 07:26:59;;;;;;;34.72;30.88;;;;;;;31.34;100.00;100302.91;5062446;28;20044;-81
2023/07/25 07:29:26;;;;;;;31.90;28.98;;;;;;;31.07;100.00;100292.81;5061176;28;20048;-81
2023/07/25 07:31:53;;;;;;;31.38;28.55;;;;;;;30.69;100.00;100286.00;5062676;28;20052;-78
2023/07/25 07:34:20;;;;;;;31.15;27.38;;;;;;;31.20;100.00;100278.69;5065614;28;20056;-78
2023/07/25 07:36:46;;;;;;;32.88;29.75;;;;;;;31.47;100.00;100281.66;5057838;28;20060;-80
2023/07/25 07:39:14;;;;;;;32.05;29.23;;;;;;;31.45;100.00;100278.47;5059408;28;20049;-79
2023/07/25 07:41:40;;;;;;;32.03;29.10;;;;;;;31.52;100.00;100270.41;5058990;28;20052;-78
2023/07/25 07:44:09;;;;;;;32.00;29.23;;;;;;;32.14;100.00;100265.06;5061081;28;20056;-81
2023/07/25 07:46:36;;;;;;;31.13;28.38;;;;;;;31.73;100.00;100255.56;5056407;28;20043;-79
2023/07/25 07:49:03;;;;;;;32.03;29.40;;;;;;;32.46;100.00;100246.44;5062451;28;21175;-79
2023/07/25 07:51:30;;;;;;;30.35;27.55;;;;;;;32.97;100.00;100251.59;5058298;28;20041;-79
2023/07/25 07:54:05;;;;;;;31.30;28.30;;;;;;;32.75;100.00;100246.94;5060634;28;20048;-79
2023/07/25 07:56:33;;;;;;;32.55;29.55;;;;;;;32.82;93.60;100239.59;5057785;28;20432;-79
2023/07/25 07:58:59;;;;;;;32.22;29.33;;;;;;;33.35;84.61;100246.31;5055576;28;20098;-81
2023/07/25 08:01:30;;;;;;;32.65;29.65;;;;;;;32.70;98.13;100255.50;5063813;28;20772;-81
2023/07/25 08:03:59;;;;;;;33.20;29.83;;;;;;;33.34;98.12;100251.00;5058667;28;20400;-81
2023/07/25 08:06:27;;;;;;;35.33;32.38;;;;;;;32.71;100.00;100251.56;5060635;28;20044;-81
2023/07/25 08:08:55;;;;;;;32.88;29.83;;;;;;;32.63;98.33;100241.63;5063275;28;20040;-81
2023/07/25 08:11:22;;;;;;;33.55;30.55;;;;;;;33.51;76.48;100245.00;5058432;28;20076;-81
2023/07/25 08:13:48;;;;;;;35.20;32.20;;;;;;;32.90;100.00;100245.22;5063972;28;20056;-81
2023/07/25 08:16:20;;;;;;;33.17;29.98;;;;;;;32.57;100.00;100239.19;5069177;28;20052;-81
2023/07/25 08:18:48;;;;;;;34.03;31.17;;;;;;;34.00;54.86;100234.19;5069571;28;20484;-82
2023/07/25 08:21:27;;;;;;;36.08;32.58;;;;;;;34.07;56.61;100232.34;5069642;28;20068;-83
2023/07/25 08:23:53;;;;;;;36.33;32.85;;;;;;;34.46;57.04;100236.63;5062425;28;20052;-81
2023/07/25 08:26:22;;;;;;;41.25;37.50;;;;;;;34.76;44.13;100228.25;5071166;28;20048;-81
2023/07/25 08:28:53;;;;;;;35.25;31.75;;;;;;;33.12;94.37;100232.63;5069833;28;20056;-81
2023/07/25 08:31:20;;;;;;;34.75;31.35;;;;;;;33.94;55.55;100220.72;5069680;28;20052;-82
2023/07/25 08:33:51;;;;;;;33.97;30.75;;;;;;;34.28;56.61;100230.94;5073777;28;20504;-78
2023/07/25 08:36:18;;;;;;;36.47;33.17;;;;;;;34.54;54.67;100232.81;5068680;28;20051;-78
2023/07/25 08:38:45;;;;;;;37.83;34.63;;;;;;;34.78;47.30;100225.91;5073593;28;20040;-79
2023/07/25 08:41:16;;;;;;;35.45;32.10;;;;;;;34.82;45.74;100224.75;5070338;28;20053;-78
2023/07/25 08:43:44;;;;;;;;;;;;;;;33.90;81.07;100222.66;5070336;28;20486;-78
2023/07/25 08:46:13;;;;;;;39.85;36.55;;;;;;;33.75;56.66;100221.69;5065499;28;19928;-79
2023/07/25 08:48:48;;;;;;;43.35;39.90;;;;;;;34.07;77.18;100210.28;5062295;28;20072;-78
2023/07/25 08:51:20;;;;;;;36.72;33.45;;;;;;;34.54;60.54;100203.28;5073032;28;20053;-79
2023/07/25 08:53:55;;;;;;;35.10;32.03;;;;;;;35.10;48.24;100210.41;5070496;28;20056;-78
2023/07/25 08:56:23;;;;;;;35.00;31.90;;;;;;;34.03;69.52;100216.91;5064685;28;20174;-81
2023/07/25 08:58:51;;;;;;;36.30;33.08;;;;;;;34.84;54.75;100205.88;5064104;28;20049;-78
2023/07/25 09:01:19;;;;;;;36.13;33.13;;;;;;;33.38;88.82;100209.81;5069656;28;20444;-79
2023/07/25 09:03:49;;;;;;;33.33;30.02;;;;;;;34.24;73.39;100208.88;5062820;28;20048;-79
2023/07/25 09:06:21;;;;;;;32.00;28.92;;;;;;;35.31;47.82;100195.94;5063554;28;20049;-78
2023/07/25 09:08:48;;;;;;;35.67;32.20;;;;;;;35.79;47.03;100201.28;5066139;28;20515;-79
2023/07/25 09:11:21;;;;;;;34.00;30.85;;;;;;;35.65;45.42;100195.72;5064693;28;20049;-78
2023/07/25 09:13:58;;;;;;;34.20;31.25;;;;;;;34.90;69.29;100202.75;5059937;28;20076;-79
2023/07/25 09:16:25;;;;;;;32.92;29.65;;;;;;;35.32;51.58;100199.50;5063840;28;20056;-78
2023/07/25 09:18:58;;;;;;;32.33;28.88;;;;;;;35.49;49.72;100203.50;5066533;28;20064;-78
2023/07/25 09:21:27;;;;;;;32.13;28.83;;;;;;;35.99;48.77;100192.66;5062733;28;20044;-78
2023/07/25 09:23:55;;;;;;;34.72;31.23;;;;;;;35.96;48.87;100185.16;5061672;28;20044;-79
2023/07/25 09:26:23;;;;;;;34.22;31.02;;;;;;;35.93;53.02;100188.69;5062419;28;20510;-81
2023/07/25 09:28:51;;;;;;;32.20;29.45;;;;;;;33.79;85.14;100187.91;5061796;28;20053;-81
2023/07/25 09:31:20;;;;;;;33.08;30.08;;;;;;;35.54;61.59;100189.38;5066272;28;20078;-81
2023/07/25 09:33:48;;;;;;;34.70;31.80;;;;;;;36.58;47.54;100178.53;5064667;28;20056;-82
2023/07/25 09:36:15;;;;;;;34.05;30.48;;;;;;;36.55;49.54;100173.81;5059373;28;20118;-81
2023/07/25 09:38:50;;;;;;;32.75;29.40;;;;;;;34.83;70.71;100173.16;5067035;28;20733;-81
2023/07/25 09:41:17;;;;;;;30.92;27.83;;;;;;;34.65;71.37;100168.31;5063189;28;20064;-79
2023/07/25 09:43:44;;;;;;;33.67;30.38;;;;;;;34.09;83.60;100177.63;5062217;28;20049;-79
2023/07/25 09:46:12;;;;;;;35.00;31.90;;;;;;;32.15;97.96;100165.00;5063671;28;20055;-79
2023/07/25 09:48:43;;;;;;;35.00;31.83;;;;;;;32.64;100.00;100167.03;5058134;28;20056;-79
2023/07/25 09:51:11;;;;;;;33.40;30.33;;;;;;;33.74;89.27;100164.28;5062448;28;20136;-79
2023/07/25 09:53:38;;;;;;;39.60;36.25;;;;;;;34.28;83.83;100143.56;5063535;28;20048;-78
2023/07/25 09:56:08;;;;;;;42.45;38.92;;;;;;;37.12;49.07;100157.13;5061974;28;20053;-79
2023/07/25 09:58:35;;;;;;;41.22;37.80;;;;;;;37.01;46.92;100150.81;5057876;28;20041;-79
2023/07/25 10:01:03;;;;;;;39.42;36.22;;;;;;;37.38;43.37;100147.53;5058001;28;20045;-79
2023/07/25 10:03:31;;;;;;;36.70;33.60;;;;;;;37.12;48.52;100146.84;5065158;28;20423;-79
2023/07/25 10:05:58;;;;;;;36.45;33.45;;;;;;;34.14;83.32;100135.97;5061377;28;20055;-78
2023/07/25 10:08:26;;;;;;;39.70;36.50;;;;;;;33.97;83.86;100126.31;5065986;28;20044;-80
2023/07/25 10:10:56;;;;;;;38.40;35.28;;;;;;;34.23;84.58;100129.34;5059876;28;20053;-78
2023/07/25 10:13:25;;;;;;;38.72;35.50;;;;;;;35.77;57.38;100120.78;5059423;28;20428;-79
2023/07/25 10:15:53;;;;;;;36.97;33.72;;;;;;;36.87;51.87;100124.75;5064795;28;20047;-79
2023/07/25 10:18:25;;;;;;;40.50;37.30;;;;;;;37.26;46.83;100120.31;5062297;28;20044;-79
2023/07/25 10:20:53;;;;;;;39.17;35.90;;;;;;;36.42;50.32;100115.31;5065293;28;20297;-81
2023/07/25 10:23:30;;;;;;;42.20;38.90;;;;;;;36.20;52.59;100117.31;5062437;28;20051;-81
2023/07/25 10:26:09;;;;;;;42.03;38.53;;;;;;;37.20;44.86;100110.84;5060535;28;20432;-81
2023/07/25 10:28:49;;;;;;;41.78;38.42;;;;;;;35.30;72.93;100099.72;5065118;28;20044;-79
2023/07/25 10:31:31;;;;;;;41.72;38.20;;;;;;;36.00;59.40;100095.56;5062731;28;20507;-79
2023/07/25 10:34:00;;;;;;;38.03;34.80;;;;;;;37.45;52.39;100100.44;5062009;28;20118;-79
2023/07/25 10:36:27;;;;;;;37.00;33.85;;;;;;;37.08;52.40;100090.72;5064257;28;20110;-79
2023/07/25 10:39:04;;;;;;;40.13;36.78;;;;;;;37.98;43.63;100093.81;5065889;28;20037;-79
2023/07/25 10:41:31;;;;;;;39.72;36.45;;;;;;;38.37;38.42;100094.66;5060974;28;20055;-79
2023/07/25 10:44:09;;;;;;;37.80;34.53;;;;;;;38.88;36.92;100095.75;5063029;28;20045;-79
2023/07/25 10:46:36;;;;;;;35.33;32.20;;;;;;;38.82;36.66;100089.84;5058717;28;20033;-77
2023/07/25 10:49:04;;;;;;;40.22;37.13;;;;;;;38.12;37.21;100084.56;5059446;28;20041;-77
2023/07/25 10:51:49;;;;;;;40.22;36.65;;;;;;;38.84;34.11;100078.34;5068510;28;20419;-78
2023/07/25 10:54:17;;;;;;;34.13;30.73;;;;;;;37.48;49.56;100071.97;4714723;28;10000048;-78
2023/07/25 10:57:11;;;;;;;39.15;35.90;;;;;;;38.89;34.74;100075.16;5061127;28;20049;-77
2023/07/25 10:59:57;;;;;;;38.00;34.47;;;;;;;38.61;37.06;100071.47;5063167;28;20715;-78
2023/07/25 11:02:32;;;;;;;37.25;33.72;;;;;;;38.11;38.83;100060.84;5063663;28;20044;-77
2023/07/25 11:05:21;;;;;;;36.70;33.33;;;;;;;38.62;34.99;100066.72;5065296;28;20178;-77
2023/07/25 11:07:53;;;;;;;37.58;34.05;;;;;;;38.94;35.14;100049.69;5064923;28;20102;-78
2023/07/25 11:10:21;;;;;;;36.75;33.30;;;;;;;39.06;34.55;100051.13;5064590;28;20048;-77